Time;durP1;ratioP1;P1;durP2;ratioP2;P2;SDS_P1;SDS_P2;PMS_P1;PMS_P2;Temp;Humidity;BMP_temperature;BMP_pressure;BME280_temperature;BME280_humidity;BME280_pressure;Samples;Min_cycle;Max_cycle;Signal;HPM_P1;HPM_P2
2021/12/05 14:03:44;;;;;;;1.83;0.90;;;26.50;54.90;;;;;;7357103;19;20478;-36
2021/12/05 14:06:47;;;;;;;4.10;3.53;;;24.90;46.80;;;;;;6481032;19;5011242;-35
2021/12/05 14:09:16;;;;;;;3.37;1.17;;;23.60;47.20;;;;;;7363714;19;20514;-36
2021/12/05 14:12:07;;;;;;;1.80;1.10;;;22.90;49.30;;;;;;7400992;19;20407;-35
2021/12/05 14:14:35;;;;;;;1.40;0.90;;;22.40;49.70;;;;;;7219704;19;59986;-35
2021/12/05 14:17:04;;;;;;;1.33;0.60;;;21.90;50.00;;;;;;7383564;19;20509;-35
2021/12/05 14:19:33;;;;;;;0.80;0.60;;;21.60;51.50;;;;;;7398796;19;20410;-35
2021/12/05 14:22:06;;;;;;;1.27;0.70;;;21.40;51.90;;;;;;7404364;19;20806;-35
2021/12/05 14:24:35;;;;;;;0.90;0.80;;;21.20;52.20;;;;;;7413918;19;20494;-35
2021/12/05 14:27:07;;;;;;;1.00;0.93;;;21.00;51.90;;;;;;7382698;19;20453;-35
2021/12/05 14:29:40;;;;;;;1.60;0.73;;;20.80;51.30;;;;;;7404676;19;20791;-37
2021/12/05 14:32:14;;;;;;;1.50;1.00;;;20.80;52.00;;;;;;7401950;19;20443;-39
2021/12/05 14:34:42;;;;;;;1.87;1.00;;;20.70;51.50;;;;;;7412531;19;20837;-39
2021/12/05 14:37:17;;;;;;;1.33;1.07;;;20.70;50.90;;;;;;7412658;19;20392;-39
2021/12/05 14:39:59;;;;;;;1.30;1.20;;;20.60;50.40;;;;;;7410366;19;20469;-39
2021/12/05 14:42:27;;;;;;;2.40;1.07;;;20.60;50.30;;;;;;7410997;19;20359;-39
2021/12/05 14:44:57;;;;;;;1.20;1.10;;;20.30;51.50;;;;;;7407770;19;20730;-39
2021/12/05 14:47:28;;;;;;;1.77;1.00;;;20.20;52.20;;;;;;7410455;19;20360;-39
2021/12/05 14:50:07;;;;;;;3.17;1.40;;;20.10;52.00;;;;;;7416084;19;20371;-39
2021/12/05 14:52:40;;;;;;;2.20;1.33;;;20.10;52.40;;;;;;7401065;19;20363;-39
2021/12/05 14:55:11;;;;;;;4.13;1.23;;;19.90;53.40;;;;;;7409175;19;20395;-38
2021/12/05 14:57:54;;;;;;;2.23;1.20;;;19.90;54.00;;;;;;7406395;19;20396;-39
2021/12/05 15:00:28;;;;;;;1.03;0.80;;;19.90;53.30;;;;;;7406357;19;20381;-39
2021/12/05 15:03:01;;;;;;;2.87;1.00;;;19.90;53.70;;;;;;7368907;19;20423;-38
2021/12/05 15:05:27;;;;;;;1.43;1.10;;;19.80;53.50;;;;;;7387744;19;20416;-38
2021/12/05 15:08:09;;;;;;;2.10;1.40;;;19.70;53.50;;;;;;7373936;19;20360;-36
2021/12/05 15:10:35;;;;;;;51.30;48.23;;;;;;;;;;7394317;19;20403;-48
2021/12/05 15:13:02;;;;;;;11.17;5.30;;;;;;;;;;7395458;19;20372;-48
2021/12/05 15:15:28;;;;;;;287.10;274.83;;;;;;;;;;7383188;19;20434;-48
2021/12/05 15:17:55;;;;;;;138.20;132.47;;;;;;;;;;7384450;19;20372;-48
2021/12/05 15:20:23;;;;;;;33.63;18.17;;;;;;;;;;7378759;19;20376;-48
2021/12/05 15:22:54;;;;;;;26.00;21.80;;;;;;;;;;7367062;19;20408;-47
2021/12/05 15:25:21;;;;;;;74.70;70.20;;;;;;;;;;7373851;19;20376;-48
2021/12/05 15:27:48;;;;;;;24.70;22.07;;;;;;;;;;7372552;19;20789;-47
2021/12/05 15:30:22;;;;;;;157.17;147.23;;;;;;;;;;7378269;19;21055;-47
2021/12/05 15:33:01;;;;;;;67.90;63.43;;;;;;;;;;7379752;19;21020;-48
2021/12/05 15:35:28;;;;;;;4.93;3.60;;;19.90;51.20;;;;;;7385436;19;20374;-51
2021/12/05 15:38:06;;;;;;;2.05;1.80;;;10.40;62.40;;;;;;7376331;19;20428;-51
2021/12/05 15:40:36;;;;;;;2.35;1.58;;;;;;;;;;7383788;19;21082;-51
2021/12/05 15:43:13;;;;;;;3.85;1.95;;;;;;;;;;7383615;19;20135;-51
2021/12/05 15:45:40;;;;;;;2.17;1.40;;;;;;;;;;7384414;19;20499;-51
2021/12/05 15:48:11;;;;;;;2.95;2.00;;;;;;;;;;7381431;19;20120;-51
2021/12/05 15:50:39;;;;;;;5.45;2.10;;;;;;;;;;7367830;19;20213;-45
2021/12/05 15:53:10;;;;;;;2.85;2.03;;;;;;;;;;7362810;19;20139;-45
2021/12/05 15:55:44;;;;;;;5.85;2.13;;;;;;;;;;7383881;19;20594;-45
2021/12/05 15:58:19;;;;;;;3.33;2.25;;;;;;;;;;7349543;19;20128;-50
2021/12/05 16:01:12;;;;;;;3.22;2.00;;;;;;;;;;7380494;19;20143;-49
2021/12/05 16:04:04;;;;;;;2.70;1.65;;;7.80;85.70;;;;;;7378957;19;20127;-48
2021/12/05 16:06:43;;;;;;;1.88;1.48;;;;;;;;;;7369352;19;20151;-49
2021/12/05 16:09:14;;;;;;;6.40;1.63;;;;;;;;;;7380837;19;20155;-49
2021/12/05 16:11:43;;;;;;;2.70;1.80;;;;;;;;;;7376802;19;20417;-49
2021/12/05 16:14:09;;;;;;;2.00;1.40;;;;;;;;;;7381252;19;20404;-50
2021/12/05 16:16:38;;;;;;;2.03;1.27;;;;;;;;;;7370241;19;21072;-49
2021/12/05 16:19:08;;;;;;;1.97;1.27;;;;;;;;;;7376878;19;20730;-49
2021/12/05 16:21:36;;;;;;;3.17;1.60;;;;;;;;;;7364291;19;20380;-48
2021/12/05 16:24:13;;;;;;;2.37;1.53;;;;;;;;;;7378400;19;20910;-49
2021/12/05 16:26:43;;;;;;;4.40;2.00;;;;;;;;;;7372172;19;20404;-48
2021/12/05 16:29:11;;;;;;;3.27;1.97;;;;;;;;;;7350767;19;20952;-49
2021/12/05 16:31:43;;;;;;;2.23;1.70;;;;;;;;;;7364233;19;20945;-45
2021/12/05 16:34:11;;;;;;;2.97;1.70;;;;;;;;;;7378791;19;20423;-45
2021/12/05 16:36:37;;;;;;;1.40;1.30;;;;;;;;;;7372870;19;20388;-45
2021/12/05 16:39:06;;;;;;;3.50;1.80;;;;;;;;;;7376346;19;20467;-46
2021/12/05 16:41:33;;;;;;;2.83;1.60;;;;;;;;;;7369160;19;20801;-45
2021/12/05 16:44:09;;;;;;;4.43;2.20;;;;;;;;;;7370182;19;20392;-45
2021/12/05 16:46:58;;;;;;;2.70;1.97;;;;;;;;;;7380089;19;20364;-46
2021/12/05 16:49:36;;;;;;;5.00;2.40;;;;;;;;;;7375828;19;20480;-45
2021/12/05 16:52:05;;;;;;;3.23;2.33;;;;;;;;;;7380345;19;20405;-46
2021/12/05 16:54:37;;;;;;;4.53;3.17;;;;;;;;;;7367543;19;20380;-46
2021/12/05 16:57:13;;;;;;;5.30;3.53;;;;;;;;;;7384400;19;20376;-45
2021/12/05 16:59:43;;;;;;;4.27;3.47;;;;;;;;;;7374607;19;20410;-49
2021/12/05 17:02:28;;;;;;;5.20;3.50;;;;;;;;;;7380795;19;20479;-49
2021/12/05 17:05:01;;;;;;;4.87;3.33;;;;;;;;;;7384302;19;20380;-49
2021/12/05 17:07:37;;;;;;;4.00;2.73;;;;;;;;;;7374647;19;20369;-49
2021/12/05 17:10:08;;;;;;;4.10;3.47;;;;;;;;;;7379457;19;21162;-49
2021/12/05 17:12:34;;;;;;;5.03;3.70;;;;;;;;;;7381102;19;20391;-49
2021/12/05 17:15:15;;;;;;;6.03;4.13;;;;;;;;;;7380543;19;20388;-49
2021/12/05 17:17:41;;;;;;;3.83;3.23;;;;;;;;;;7378130;19;20389;-49
2021/12/05 17:20:37;;;;;;;3.60;3.30;;;;;;;;;;7376655;19;20407;-49
2021/12/05 17:23:11;;;;;;;5.33;3.93;;;;;;;;;;7380424;19;20423;-49
2021/12/05 17:25:44;;;;;;;4.97;3.60;;;;;;;;;;7377041;19;20453;-49
2021/12/05 17:28:12;;;;;;;3.87;3.47;;;;;;;;;;7380818;19;20824;-49
2021/12/05 17:30:49;;;;;;;5.30;4.23;;;;;;;;;;7378188;19;20832;-49
2021/12/05 17:33:25;;;;;;;5.03;4.30;;;;;;;;;;7376237;19;20997;-49
2021/12/05 17:35:51;;;;;;;4.77;3.83;;;;;;;;;;7374457;19;20398;-49
2021/12/05 17:38:29;;;;;;;6.30;4.07;;;;;;;;;;7373784;19;20376;-49
2021/12/05 17:40:59;;;;;;;4.03;3.63;;;;;;;;;;7374916;19;20436;-48
2021/12/05 17:43:25;;;;;;;3.80;3.30;;;;;;;;;;7368742;19;20411;-49
2021/12/05 17:45:51;;;;;;;4.83;4.20;;;;;;;;;;7375949;19;20376;-49
2021/12/05 17:48:20;;;;;;;6.13;3.77;;;;;;;;;;7373485;19;20898;-49
2021/12/05 17:50:49;;;;;;;4.87;3.87;;;;;;;;;;7377130;19;20416;-49
2021/12/05 17:53:16;;;;;;;5.40;4.00;;;;;;;;;;7376810;19;20824;-48
2021/12/05 17:55:47;;;;;;;6.27;4.17;;;;;;;;;;7377736;19;20855;-48
2021/12/05 17:58:33;;;;;;;7.43;3.97;;;;;;;;;;7372896;19;20456;-48
2021/12/05 18:03:52;;;;;;;7.37;3.70;;;;;;;;;;7368685;19;20380;-48
2021/12/05 18:06:24;;;;;;;7.60;4.30;;;;;;;;;;7378219;19;21367;-49
2021/12/05 18:08:52;;;;;;;4.90;4.30;;;;;;;;;;7372270;19;20399;-49
2021/12/05 18:11:22;;;;;;;8.40;4.27;;;;;;;;;;7360096;19;20991;-48
2021/12/05 18:13:52;;;;;;;9.40;7.60;;;;;;;;;;7363810;19;20388;-48
2021/12/05 18:16:24;;;;;;;9.23;6.70;;;;;;;;;;7377631;19;20448;-49
2021/12/05 18:19:10;;;;;;;7.27;5.67;;;;;;;;;;7367082;19;20380;-48
2021/12/05 18:21:37;;;;;;;7.33;5.20;;;;;;;;;;7369317;19;20424;-49
2021/12/05 18:24:10;;;;;;;6.83;5.83;;;;;;;;;;7370127;19;20914;-49
2021/12/05 18:26:37;;;;;;;6.10;5.30;;;;;;;;;;7358737;19;20388;-49
2021/12/05 18:29:09;;;;;;;9.17;5.73;;;;;;;;;;7373112;19;20392;-49
2021/12/05 18:31:38;;;;;;;8.00;5.00;;;;;;;;;;7369853;19;20967;-45
2021/12/05 18:34:15;;;;;;;8.50;5.70;;;;;;;;;;7372455;19;20408;-45
2021/12/05 18:36:43;;;;;;;5.60;5.07;;;;;;;;;;7359371;19;20404;-46
2021/12/05 18:39:18;;;;;;;8.33;5.10;;;;;;;;;;7367016;19;20364;-45
2021/12/05 18:41:45;;;;;;;7.43;5.33;;;;;;;;;;7379345;19;20814;-45
2021/12/05 18:44:19;;;;;;;6.70;4.70;;;;;;;;;;7377065;19;20395;-45
2021/12/05 18:46:47;;;;;;;6.60;4.63;;;;;;;;;;7363543;19;20464;-45
2021/12/05 18:49:14;;;;;;;6.10;5.50;;;;;;;;;;7386592;19;20407;-44
2021/12/05 18:51:43;;;;;;;8.40;5.20;;;;;;;;;;7384464;19;20379;-45
2021/12/05 18:54:10;;;;;;;6.37;5.70;;;;;;;;;;7367522;19;20407;-45
2021/12/05 18:56:36;;;;;;;5.87;5.33;;;;;;;;;;7379786;19;20463;-45
2021/12/05 18:59:05;;;;;;;6.03;5.43;;;;;;;;;;7376354;19;20419;-45
2021/12/05 19:04:32;;;;;;;7.20;4.93;;;;;;;;;;7384893;19;20816;-48
2021/12/05 19:07:07;;;;;;;5.77;4.93;;;;;;;;;;7384215;19;20379;-48
2021/12/05 19:12:18;;;;;;;8.33;5.70;;;;;;;;;;7380061;19;20381;-48
2021/12/05 19:14:52;;;;;;;6.20;5.47;;;;;;;;;;7387151;19;20436;-48
2021/12/05 19:17:29;;;;;;;10.13;6.07;;;;;;;;;;7383180;19;20901;-48
2021/12/05 19:20:00;;;;;;;8.30;6.63;;;;;;;;;;7381431;19;20874;-47
2021/12/05 19:22:31;;;;;;;6.23;4.70;;;;;;;;;;7375368;19;21565;-47
2021/12/05 19:25:00;;;;;;;6.63;5.50;;;;;;;;;;7370800;19;20396;-47
2021/12/05 19:27:28;;;;;;;6.30;5.60;;;;;;;;;;7381982;19;20375;-47
2021/12/05 19:29:54;;;;;;;8.67;7.00;;;;;;;;;;7385312;19;20388;-47
2021/12/05 19:32:21;;;;;;;9.70;5.77;;;;;;;;;;7373247;19;20981;-47
2021/12/05 19:34:50;;;;;;;6.20;5.10;;;;;;;;;;7370932;19;20412;-47
2021/12/05 19:37:19;;;;;;;7.97;6.10;;;;;;;;;;7375184;19;20377;-47
2021/12/05 19:39:46;;;;;;;5.83;5.27;;;;;;;;;;7388880;19;20467;-47
2021/12/05 19:42:12;;;;;;;8.10;5.63;;;;;;;;;;7385836;19;20396;-47
2021/12/05 19:44:39;;;;;;;7.70;5.93;;;;;;;;;;7385926;19;20433;-47
2021/12/05 19:47:08;;;;;;;6.83;5.90;;;;;;;;;;7382968;19;20892;-47
2021/12/05 19:49:39;;;;;;;6.43;5.07;;;;;;;;;;7388712;19;20922;-47
2021/12/05 19:52:05;;;;;;;5.10;4.60;;;;;;;;;;7383181;19;20403;-47
2021/12/05 19:54:31;;;;;;;9.53;5.33;;;;;;;;;;7386093;19;20388;-47
2021/12/05 19:57:02;;;;;;;5.23;4.73;;;;;;;;;;7381699;19;20400;-47
2021/12/05 19:59:33;;;;;;;7.20;5.10;;;;;;;;;;7383691;19;20380;-44
2021/12/05 20:01:59;;;;;;;6.73;5.43;;;;;;;;;;7379380;19;20376;-44
2021/12/05 20:04:28;;;;;;;7.40;5.10;;;;;;;;;;7384642;19;20931;-44
2021/12/05 20:06:55;;;;;;;5.87;4.40;;;;;;;;;;7384478;19;20401;-44
2021/12/05 20:09:27;;;;;;;4.80;4.20;;;;;;;;;;7373604;19;20396;-44
2021/12/05 20:11:53;;;;;;;8.63;5.10;;;;;;;;;;7385423;19;20416;-44
2021/12/05 20:14:20;;;;;;;6.30;4.57;;;;;;;;;;7384131;19;20417;-44
2021/12/05 20:16:48;;;;;;;5.30;3.93;;;;;;;;;;7384864;19;20381;-44
2021/12/05 20:19:15;;;;;;;5.23;3.90;;;;;;;;;;7383206;19;20368;-44
2021/12/05 20:21:43;;;;;;;4.00;3.60;;;;;;;;;;7381109;19;20421;-44
2021/12/05 20:24:10;;;;;;;4.33;3.60;;;;;;;;;;7384822;19;20808;-44
2021/12/05 20:26:40;;;;;;;4.73;4.23;;;;;;;;;;7381568;19;20372;-44
2021/12/05 20:29:09;;;;;;;5.83;3.53;;;;;;;;;;7366727;19;20419;-44
2021/12/05 20:31:37;;;;;;;5.33;4.00;;;;;;;;;;7367423;19;20429;-47
2021/12/05 20:34:04;;;;;;;4.63;4.23;;;;;;;;;;7381637;19;20411;-47
2021/12/05 20:36:34;;;;;;;5.03;3.47;;;;;;;;;;7382827;19;21334;-47
2021/12/05 20:39:00;;;;;;;5.87;4.23;;;;;;;;;;7381978;19;20406;-47
2021/12/05 20:41:29;;;;;;;3.87;3.57;;;;;;;;;;7381792;19;20384;-47
2021/12/05 20:43:55;;;;;;;6.93;3.77;;;;;;;;;;7385853;19;20391;-47
2021/12/05 20:46:23;;;;;;;4.47;3.87;;;;;;;;;;7382063;19;20401;-47
2021/12/05 20:48:54;;;;;;;4.77;4.27;;;;;;;;;;7371548;19;20425;-47
2021/12/05 20:51:27;;;;;;;7.50;4.90;;;;;;;;;;7381388;19;20396;-47
2021/12/05 20:53:57;;;;;;;5.80;4.53;;;;;;;;;;7380510;19;20405;-47
2021/12/05 20:56:24;;;;;;;6.60;4.87;;;;;;;;;;7377524;19;20373;-47
2021/12/05 20:58:51;;;;;;;8.37;5.30;;;;;;;;;;7381814;19;20372;-47
2021/12/05 21:01:17;;;;;;;6.03;4.10;;;;;;;;;;7373224;19;20787;-47
2021/12/05 21:03:43;;;;;;;7.20;4.93;;;;;;;;;;7365310;19;20349;-47
2021/12/05 21:06:12;;;;;;;6.17;4.97;;;;;;;;;;7374782;19;20849;-47
2021/12/05 21:08:40;;;;;;;5.43;4.87;;;;;;;;;;7343828;19;20360;-47
2021/12/05 21:11:11;;;;;;;6.23;4.70;;;;;;;;;;7334309;19;20397;-47
2021/12/05 21:13:38;;;;;;;4.23;3.83;;;;;;;;;;7358281;19;20400;-47
2021/12/05 21:16:04;;;;;;;6.13;3.87;;;;;;;;;;7358809;19;20377;-47
2021/12/05 21:18:31;;;;;;;4.67;3.80;;;;;;;;;;7355283;19;20467;-47
2021/12/05 21:21:00;;;;;;;5.90;4.10;;;10.40;76.70;;;;;;7358822;19;20404;-47
2021/12/05 21:23:29;;;;;;;5.57;4.10;;;24.00;61.70;;;;;;7369921;19;20400;-47
2021/12/05 21:25:55;;;;;;;5.97;4.77;;;23.90;60.90;;;;;;7374553;19;20388;-47
2021/12/05 21:28:21;;;;;;;4.87;4.10;;;23.90;60.90;;;;;;7354883;19;20444;-46
2021/12/05 21:30:48;;;;;;;4.67;3.87;;;23.90;60.90;;;;;;7342117;19;20437;-47
2021/12/05 21:33:16;;;;;;;4.80;3.60;;;24.00;60.80;;;;;;7356125;19;20388;-46
2021/12/05 21:35:42;;;;;;;4.83;3.57;;;24.00;61.20;;;;;;7372387;19;21005;-47
2021/12/05 21:38:12;;;;;;;5.07;3.70;;;24.00;60.70;;;;;;7373774;19;20412;-47
2021/12/05 21:40:45;;;;;;;3.97;3.07;;;24.00;60.70;;;;;;7370733;19;20388;-45
2021/12/05 21:43:14;;;;;;;4.63;3.70;;;24.00;60.50;;;;;;7371099;19;20742;-45
2021/12/05 21:45:40;;;;;;;4.07;3.43;;;24.10;60.10;;;;;;7383560;19;20916;-44
2021/12/05 21:48:07;;;;;;;4.83;3.30;;;24.00;59.70;;;;;;7380936;19;20411;-44
2021/12/05 21:50:33;;;;;;;6.13;3.50;;;24.00;59.80;;;;;;7379561;19;20440;-45
2021/12/05 21:53:03;;;;;;;4.30;3.90;;;24.00;59.70;;;;;;7381179;19;20352;-45
2021/12/05 21:55:31;;;;;;;4.37;3.70;;;24.00;59.80;;;;;;7379020;19;20902;-45
2021/12/05 21:57:58;;;;;;;4.47;3.10;;;24.10;59.30;;;;;;7367375;19;20401;-45
2021/12/05 22:00:30;;;;;;;4.20;3.67;;;24.10;59.50;;;;;;7364456;19;21016;-45
2021/12/05 22:02:56;;;;;;;5.90;3.10;;;24.10;58.80;;;;;;7352429;19;20384;-45
2021/12/05 22:05:23;;;;;;;3.10;2.70;;;24.10;59.20;;;;;;7373989;19;20387;-45
2021/12/05 22:07:53;;;;;;;4.03;3.10;;;;;;;;;;7376541;19;20376;-45
2021/12/05 22:10:22;;;;;;;4.87;3.17;;;;;;;;;;7374369;19;20364;-45
2021/12/05 22:12:55;;;;;;;3.33;3.03;;;;;;;;;;7371187;19;20404;-45
2021/12/05 22:15:29;;;;;;;4.80;2.90;;;;;;;;;;7369818;19;20362;-45
2021/12/05 22:17:55;;;;;;;4.10;3.70;;;;;;;;;;7376389;19;20432;-45
2021/12/05 22:20:26;;;;;;;3.67;3.17;;;;;;;;;;7376241;19;20372;-45
2021/12/05 22:22:58;;;;;;;3.33;3.00;;;24.30;58.70;;;;;;7378020;19;20412;-45
2021/12/05 22:25:25;;;;;;;3.50;3.10;;;24.10;57.20;;;;;;7381416;19;20488;-45
2021/12/05 22:27:51;;;;;;;3.57;3.20;;;24.20;56.60;;;;;;7383810;19;20381;-45
2021/12/05 22:30:20;;;;;;;3.20;2.67;;;24.10;56.00;;;;;;7367489;19;20455;-45
2021/12/05 22:32:46;;;;;;;5.40;3.60;;;24.10;56.10;;;;;;7380646;19;20440;-45
2021/12/05 22:35:15;;;;;;;6.40;4.30;;;;;;;;;;7371002;19;21064;-45
2021/12/05 22:37:41;;;;;;;8.03;4.67;;;;;;;;;;7362180;19;20541;-45
2021/12/05 22:40:09;;;;;;;9.37;4.77;;;;;;;;;;7383221;19;20433;-45
2021/12/05 22:42:35;;;;;;;7.20;4.77;;;;;;;;;;7371335;19;20407;-45
2021/12/05 22:45:02;;;;;;;5.20;3.90;;;;;;;;;;7379356;19;20435;-47
2021/12/05 22:47:28;;;;;;;6.27;4.20;;;;;;;;;;7377504;19;20403;-45
2021/12/05 22:49:54;;;;;;;7.37;4.33;;;;;;;;;;7365450;19;20412;-45
2021/12/05 22:52:23;;;;;;;7.57;4.30;;;;;;;;;;7380640;19;20417;-45
2021/12/05 22:54:49;;;;;;;8.60;4.20;;;;;;;;;;7387753;19;20397;-45
2021/12/05 22:57:15;;;;;;;9.00;4.67;;;;;;;;;;7365885;19;20396;-45
2021/12/05 22:59:41;;;;;;;7.00;4.20;;;;;;;;;;7381412;19;20368;-46
2021/12/05 23:02:08;;;;;;;6.47;4.23;;;;;;;;;;7386377;19;20407;-45
2021/12/05 23:04:35;;;;;;;6.20;4.47;;;;;;;;;;7386805;19;20369;-45
2021/12/05 23:07:01;;;;;;;8.00;4.20;;;;;;;;;;7384224;19;20387;-45
2021/12/05 23:09:28;;;;;;;6.23;3.77;;;;;;;;;;7380057;19;20444;-47
2021/12/05 23:11:57;;;;;;;6.13;3.57;;;;;;;;;;7387145;19;20369;-48
2021/12/05 23:14:26;;;;;;;5.00;3.90;;;;;;;;;;7381819;19;20387;-47
2021/12/05 23:16:57;;;;;;;5.00;3.37;;;;;;;;;;7385731;19;20448;-48
2021/12/05 23:19:23;;;;;;;6.30;3.93;;;;;;;;;;7378820;19;20384;-48
2021/12/05 23:21:59;;;;;;;6.13;3.83;;;;;;;;;;7370418;19;20458;-48
2021/12/05 23:24:27;;;;;;;5.23;3.23;;;;;;;;;;7380142;19;20376;-48
2021/12/05 23:26:56;;;;;;;5.97;3.70;;;;;;;;;;7383800;19;20384;-48
2021/12/05 23:29:27;;;;;;;5.03;3.80;;;;;;;;;;7365363;19;20422;-48
2021/12/05 23:31:57;;;;;;;5.53;3.20;;;;;;;;;;7360062;19;20464;-48
2021/12/05 23:34:24;;;;;;;4.57;2.90;;;;;;;;;;7368471;19;20951;-48
2021/12/05 23:36:51;;;;;;;4.20;2.80;;;;;;;;;;7369123;19;20375;-48
2021/12/05 23:39:18;;;;;;;4.83;3.00;;;;;;;;;;7355047;19;20384;-48
2021/12/05 23:41:45;;;;;;;5.33;3.27;;;;;;;;;;7376533;19;20436;-48
2021/12/05 23:44:13;;;;;;;6.30;3.50;;;;;;;;;;7374192;19;25348;-48
2021/12/05 23:46:42;;;;;;;5.47;3.20;;;;;;;;;;7366500;19;20365;-48
2021/12/05 23:49:08;;;;;;;4.50;2.80;;;;;;;;;;7402067;19;22271;-48
2021/12/05 23:51:35;;;;;;;7.20;3.13;;;;;;;;;;7364529;19;20497;-48
2021/12/05 23:54:02;;;;;;;4.50;3.27;;;;;;;;;;7400050;19;20420;-48
2021/12/05 23:56:28;;;;;;;4.37;2.60;;;;;;;;;;7403530;19;20639;-48
2021/12/05 23:58:55;;;;;;;3.80;2.30;;;;;;;;;;7400983;19;20420;-48
